createdAt,value
2018-02-10T00:03:10.209Z,"    0"
2018-02-10T00:08:11.458Z,"    0"
2018-02-10T00:13:09.814Z,"    0"
2018-02-10T00:18:08.948Z,"    0"
2018-02-10T00:23:07.746Z,"    0"
2018-02-10T00:28:04.021Z,"    0"
2018-02-10T00:32:59.640Z,"    0"
2018-02-10T00:37:59.361Z,"    0"
2018-02-10T00:42:56.182Z,"    0"
2018-02-10T00:47:55.201Z,"    0"
2018-02-10T00:52:55.039Z,"    0"
2018-02-10T00:57:50.535Z,"    0"
2018-02-10T01:02:46.299Z,"    0"
2018-02-10T01:07:45.977Z,"    0"
2018-02-10T01:12:41.872Z,"    0"
2018-02-10T01:17:42.083Z,"    0"
2018-02-10T01:22:40.677Z,"    0"
2018-02-10T01:27:42.228Z,"    0"
2018-02-10T01:32:43.279Z,"    0"
2018-02-10T01:37:41.961Z,"    0"
2018-02-10T01:42:41.748Z,"    0"
2018-02-10T01:47:42.328Z,"    0"
2018-02-10T01:52:42.962Z,"    0"
2018-02-10T01:57:37.858Z,"    0"
2018-02-10T02:02:37.794Z,"    0"
2018-02-10T02:07:36.664Z,"    0"
2018-02-10T02:12:37.110Z,"    0"
2018-02-10T02:17:36.524Z,"    0"
2018-02-10T02:22:33.511Z,"    0"
2018-02-10T02:27:32.648Z,"    0"
2018-02-10T02:32:32.278Z,"    0"
2018-02-10T02:37:30.842Z,"    0"
2018-02-10T02:42:27.646Z,"    0"
2018-02-10T02:47:22.422Z,"    0"
2018-02-10T02:52:18.086Z,"    0"
2018-02-10T02:57:18.104Z,"    0"
2018-02-10T03:02:16.907Z,"    0"
2018-02-10T03:07:12.904Z,"    0"
2018-02-10T03:12:13.144Z,"    0"
2018-02-10T03:17:08.201Z,"    0"
2018-02-10T03:22:04.205Z,"    0"
2018-02-10T03:27:04.702Z,"    0"
2018-02-10T03:32:04.701Z,"    0"
2018-02-10T03:37:03.641Z,"    0"
2018-02-10T03:41:58.479Z,"    0"
2018-02-10T03:46:55.914Z,"    0"
2018-02-10T03:51:52.278Z,"    0"
2018-02-10T03:56:49.838Z,"    0"
2018-02-10T04:01:45.292Z,"    0"
2018-02-10T04:06:45.485Z,"    0"
2018-02-10T04:11:40.517Z,"    0"
2018-02-10T04:16:37.294Z,"    0"
2018-02-10T04:21:35.499Z,"    0"
2018-02-10T04:26:31.803Z,"    0"
2018-02-10T04:31:28.275Z,"    0"
2018-02-10T04:36:23.622Z,"    0"
2018-02-10T04:41:20.594Z,"    0"
2018-02-10T04:46:20.890Z,"    0"
2018-02-10T04:51:20.348Z,"    0"
2018-02-10T04:56:14.794Z,"    0"
2018-02-10T05:01:11.286Z,"    0"
2018-02-10T05:06:07.885Z,"    0"
2018-02-10T05:11:08.255Z,"    0"
2018-02-10T05:16:03.279Z,"    0"
2018-02-10T05:21:03.193Z,"    0"
2018-02-10T05:25:58.222Z,"    0"
2018-02-10T05:30:53.769Z,"    0"
2018-02-10T05:35:53.710Z,"    0"
2018-02-10T05:40:53.292Z,"    0"
2018-02-10T05:45:48.252Z,"    0"
2018-02-10T05:50:44.518Z,"    0"
2018-02-10T05:55:43.942Z,"    0"
2018-02-10T06:00:39.845Z,"    0"
2018-02-10T06:05:35.201Z,"    0"
2018-02-10T06:10:34.931Z,"    0"
2018-02-10T06:15:30.781Z,"    0"
2018-02-10T06:20:26.642Z,"    0"
2018-02-10T06:25:22.549Z,"    0"
2018-02-10T06:30:22.954Z,"    0"
2018-02-10T06:35:17.664Z,"    0"
2018-02-10T06:40:13.499Z,"    0"
2018-02-10T06:45:14.305Z,"    0"
2018-02-10T06:50:15.320Z,"    0"
2018-02-10T06:55:14.667Z,"    0"
2018-02-10T07:00:09.728Z,"    0"
2018-02-10T07:05:09.522Z,"    0"
2018-02-10T07:10:09.086Z,"    0"
2018-02-10T07:15:08.115Z,"    5"
2018-02-10T07:20:03.213Z,"    5"
2018-02-10T07:24:59.131Z,"    5"
2018-02-10T07:30:00.354Z,"    5"
2018-02-10T07:34:55.225Z,"    5"
2018-02-10T07:39:54.788Z,"   10"
2018-02-10T07:44:50.602Z,"   10"
2018-02-10T07:49:45.978Z,"   10"
2018-02-10T07:54:45.860Z,"   10"
2018-02-10T07:59:40.877Z,"   10"
2018-02-10T08:04:36.760Z,"   10"
2018-02-10T08:09:33.470Z,"   15"
2018-02-10T08:14:28.777Z,"   15"
2018-02-10T08:19:25.618Z,"   15"
2018-02-10T08:24:22.063Z,"   20"
2018-02-10T08:29:22.516Z,"   30"
2018-02-10T08:34:17.944Z,"   35"
2018-02-10T08:39:13.834Z,"   35"
2018-02-10T08:44:13.436Z,"   30"
2018-02-10T08:49:08.072Z,"   35"
2018-02-10T08:54:05.613Z,"   35"
2018-02-10T08:59:02.231Z,"   45"
2018-02-10T09:03:57.706Z,"   45"
2018-02-10T09:08:58.370Z,"   45"
2018-02-10T09:13:53.158Z,"   50"
2018-02-10T09:18:48.927Z,"   50"
2018-02-10T09:23:49.560Z,"   60"
2018-02-10T09:28:44.223Z,"   70"
2018-02-10T09:33:41.166Z,"   70"
2018-02-10T09:38:37.813Z,"   75"
2018-02-10T09:43:39.070Z,"   75"
2018-02-10T09:48:38.437Z,"  100"
2018-02-10T09:53:37.164Z,"   80"
2018-02-10T09:58:35.571Z,"  100"
2018-02-10T10:03:34.255Z,"   85"
2018-02-10T10:08:29.918Z,"   70"
2018-02-10T10:13:26.305Z,"   70"
2018-02-10T10:18:25.661Z,"   65"
2018-02-10T10:23:24.975Z,"   55"
2018-02-10T10:28:19.621Z,"   45"
2018-02-10T10:33:15.969Z,"   50"
2018-02-10T10:38:11.435Z,"   45"
2018-02-10T10:43:07.527Z,"   50"
2018-02-10T10:48:03.099Z,"   50"
2018-02-10T10:53:00.102Z,"   45"
2018-02-10T10:57:59.469Z,"   45"
2018-02-10T11:02:55.045Z,"   50"
2018-02-10T11:07:51.740Z,"   50"
2018-02-10T11:12:47.474Z,"   55"
2018-02-10T11:17:48.065Z,"   60"
2018-02-10T11:22:47.739Z,"   50"
2018-02-10T11:27:43.003Z,"   65"
2018-02-10T11:32:43.443Z,"   70"
2018-02-10T11:37:42.109Z,"   50"
2018-02-10T11:42:37.427Z,"   50"
2018-02-10T11:47:37.163Z,"   55"
2018-02-10T11:52:33.696Z,"   60"
2018-02-10T11:57:29.028Z,"   55"
2018-02-10T12:02:25.646Z,"   55"
2018-02-10T12:07:27.740Z,"   55"
2018-02-10T12:12:23.397Z,"   60"
2018-02-10T12:17:19.247Z,"   75"
2018-02-10T12:22:15.080Z,"   75"
2018-02-10T12:27:10.755Z,"   55"
2018-02-10T12:32:06.471Z,"   50"
2018-02-10T12:37:06.021Z,"   45"
2018-02-10T12:42:02.560Z,"   60"
2018-02-10T12:46:58.272Z,"   35"
2018-02-10T12:51:53.923Z,"   30"
2018-02-10T12:56:49.542Z,"   40"
2018-02-10T13:01:50.009Z,"   40"
2018-02-10T13:06:44.667Z,"   40"
2018-02-10T13:11:41.362Z,"   40"
2018-02-10T13:16:36.863Z,"   50"
2018-02-10T13:21:33.071Z,"   70"
2018-02-10T13:26:29.143Z,"   60"
2018-02-10T13:31:24.772Z,"   70"
2018-02-10T13:36:20.650Z,"   55"
2018-02-10T13:41:16.318Z,"   60"
2018-02-10T13:46:13.389Z,"   55"
2018-02-10T13:51:09.090Z,"   60"
2018-02-10T13:56:09.776Z,"   60"
2018-02-10T14:01:04.413Z,"   35"
2018-02-10T14:06:01.244Z,"   35"
2018-02-10T14:11:00.570Z,"   40"
2018-02-10T14:15:59.247Z,"   45"
2018-02-10T14:20:54.120Z,"   35"
2018-02-10T14:25:51.625Z,"   40"
2018-02-10T14:30:48.108Z,"   40"
2018-02-10T14:35:46.319Z,"   35"
2018-02-10T14:40:41.772Z,"   30"
2018-02-10T14:45:38.309Z,"   30"
2018-02-10T14:50:33.771Z,"   35"
2018-02-10T14:55:30.560Z,"   25"
2018-02-10T15:00:25.771Z,"   25"
2018-02-10T15:05:21.451Z,"   25"
2018-02-10T15:10:17.022Z,"   25"
2018-02-10T15:15:17.808Z,"   30"
2018-02-10T15:20:14.450Z,"   40"
2018-02-10T15:25:10.205Z,"   35"
2018-02-10T15:30:09.758Z,"   30"
2018-02-10T15:35:04.563Z,"   30"
2018-02-10T15:40:02.168Z,"   20"
2018-02-10T15:44:57.945Z,"   15"
2018-02-10T15:49:57.751Z,"   10"
2018-02-10T15:54:52.568Z,"   15"
2018-02-10T15:59:48.400Z,"   10"
2018-02-10T16:04:49.521Z,"    5"
2018-02-10T16:09:47.873Z,"    5"
2018-02-10T16:14:42.763Z,"    5"
2018-02-10T16:19:39.244Z,"    5"
2018-02-10T16:24:39.517Z,"    0"
2018-02-10T16:29:34.429Z,"    0"
2018-02-10T16:34:30.222Z,"    0"
2018-02-10T16:39:26.248Z,"    0"
2018-02-10T16:44:25.947Z,"    0"
2018-02-10T16:49:24.536Z,"    0"
2018-02-10T16:59:23.215Z,"    0"
2018-02-10T17:04:18.167Z,"    0"
2018-02-10T17:09:18.997Z,"    0"
2018-02-10T17:14:14.187Z,"    0"
2018-02-10T17:19:14.194Z,"    0"
2018-02-10T17:24:10.229Z,"    0"
2018-02-10T17:29:06.316Z,"    0"
2018-02-10T17:34:02.045Z,"    0"
2018-02-10T17:38:57.965Z,"    0"
2018-02-10T17:43:57.608Z,"    0"
2018-02-10T17:48:57.177Z,"    0"
2018-02-10T17:53:51.883Z,"    0"
2018-02-10T17:58:47.558Z,"    0"
2018-02-10T18:03:43.327Z,"    0"
2018-02-10T18:08:44.663Z,"    0"
2018-02-10T18:13:40.582Z,"    0"
2018-02-10T18:18:35.788Z,"    0"
2018-02-10T18:23:31.662Z,"    0"
2018-02-10T18:28:28.337Z,"    0"
2018-02-10T18:33:24.972Z,"    0"
2018-02-10T18:38:21.276Z,"    0"
2018-02-10T18:43:17.999Z,"    0"
2018-02-10T18:48:13.367Z,"    0"
2018-02-10T18:53:13.180Z,"    0"
2018-02-10T18:58:08.941Z,"    0"
2018-02-10T19:03:08.425Z,"    0"
2018-02-10T19:08:03.077Z,"    0"
2018-02-10T19:13:02.629Z,"    0"
2018-02-10T19:18:02.412Z,"    0"
2018-02-10T19:22:57.020Z,"    0"
2018-02-10T19:27:52.764Z,"    0"
2018-02-10T19:32:48.493Z,"    0"
2018-02-10T19:37:47.964Z,"    0"
2018-02-10T19:42:47.114Z,"    0"
2018-02-10T19:47:45.696Z,"    0"
2018-02-10T19:52:44.431Z,"    0"
2018-02-10T19:57:39.507Z,"    0"
2018-02-10T20:02:39.254Z,"    0"
2018-02-10T20:07:34.793Z,"    0"
2018-02-10T20:12:30.582Z,"    0"
2018-02-10T20:17:26.226Z,"    0"
2018-02-10T20:22:22.051Z,"    0"
2018-02-10T20:27:17.715Z,"    0"
2018-02-10T20:32:13.488Z,"    0"
2018-02-10T20:37:09.229Z,"    0"
2018-02-10T20:42:05.460Z,"    0"
2018-02-10T20:47:01.011Z,"    0"
2018-02-10T20:51:56.711Z,"    0"
2018-02-10T20:56:56.368Z,"    0"
2018-02-10T21:01:51.625Z,"    0"
2018-02-10T21:06:47.253Z,"    0"
2018-02-10T21:11:43.186Z,"    0"
2018-02-10T21:16:42.355Z,"    0"
2018-02-10T21:21:41.151Z,"    0"
2018-02-10T21:26:37.037Z,"    0"
2018-02-10T21:31:36.637Z,"    0"
2018-02-10T21:36:37.583Z,"    0"
2018-02-10T21:41:31.951Z,"    0"
2018-02-10T21:46:29.253Z,"    0"
2018-02-10T21:51:25.355Z,"    0"
2018-02-10T21:56:21.510Z,"    0"
2018-02-10T22:01:17.980Z,"    0"
2018-02-10T22:06:14.194Z,"    0"
2018-02-10T22:11:10.745Z,"    0"
2018-02-10T22:16:11.062Z,"    0"
2018-02-10T22:21:05.565Z,"    0"
2018-02-10T22:26:01.335Z,"    0"
2018-02-10T22:30:57.770Z,"    0"
2018-02-10T22:35:53.941Z,"    0"
2018-02-10T22:40:50.647Z,"    0"
2018-02-10T22:45:49.871Z,"    0"
2018-02-10T22:50:48.549Z,"    0"
2018-02-10T22:55:47.231Z,"    0"
2018-02-10T23:00:42.128Z,"    0"
2018-02-10T23:05:38.909Z,"    0"
2018-02-10T23:10:36.177Z,"    0"
2018-02-10T23:15:36.501Z,"    0"
2018-02-10T23:20:31.367Z,"    0"
2018-02-10T23:25:30.742Z,"    0"
2018-02-10T23:30:25.627Z,"    0"
2018-02-10T23:35:22.582Z,"    0"
2018-02-10T23:40:19.000Z,"    0"
2018-02-10T23:45:14.267Z,"    0"
2018-02-10T23:50:10.980Z,"    0"
2018-02-10T23:55:06.454Z,"    0"
